Time;durP1;ratioP1;P1;durP2;ratioP2;P2;SDS_P1;SDS_P2;PMS_P1;PMS_P2;Temp;Humidity;BMP_temperature;BMP_pressure;BME280_temperature;BME280_humidity;BME280_pressure;Samples;Min_cycle;Max_cycle;Signal;HPM_P1;HPM_P2
2022/04/05 00:01:11;;;;;;;7.63;2.00;;;;;;;5.68;nan;99594.78;4970160;28;20026;-45
2022/04/05 00:03:37;;;;;;;4.38;1.33;;;;;;;5.64;nan;99593.66;4969711;28;20027;-46
2022/04/05 00:06:03;;;;;;;4.53;1.63;;;;;;;5.64;nan;99604.28;4962845;28;20035;-48
2022/04/05 00:08:28;;;;;;;6.28;1.48;;;;;;;5.61;nan;99600.28;4964827;28;20027;-49
2022/04/05 00:10:54;;;;;;;5.45;1.38;;;;;;;5.61;nan;99600.28;4964275;28;20027;-48
2022/04/05 00:13:19;;;;;;;4.15;1.15;;;;;;;5.61;nan;99599.47;4967450;28;20169;-46
2022/04/05 00:15:44;;;;;;;3.85;1.40;;;;;;;5.60;nan;99603.97;4964182;28;20081;-50
2022/04/05 00:18:10;;;;;;;3.50;1.38;;;;;;;5.60;nan;99606.63;4970072;28;20329;-48
2022/04/05 00:20:36;;;;;;;4.85;1.40;;;;;;;5.53;nan;99605.19;4966334;28;20034;-50
2022/04/05 00:23:02;;;;;;;4.47;1.40;;;;;;;5.50;nan;99611.78;4966816;28;20086;-50
2022/04/05 00:25:27;;;;;;;7.63;1.30;;;;;;;5.48;nan;99605.91;4964965;28;20097;-48
2022/04/05 00:27:53;;;;;;;6.00;1.23;;;;;;;5.44;nan;99618.88;4963188;28;20035;-46
2022/04/05 00:30:19;;;;;;;5.95;1.80;;;;;;;5.44;nan;99605.59;4963458;28;20035;-45
2022/04/05 00:32:45;;;;;;;10.45;1.40;;;;;;;5.43;nan;99608.50;4968882;28;20539;-48
2022/04/05 00:35:12;;;;;;;6.88;1.27;;;;;;;5.41;nan;99607.94;4965125;28;20027;-47
2022/04/05 00:37:38;;;;;;;6.15;1.85;;;;;;;5.38;nan;99611.84;4959218;28;20027;-48
2022/04/05 00:40:05;;;;;;;6.90;1.50;;;;;;;5.36;nan;99605.19;4965026;28;20031;-49
2022/04/05 00:42:32;;;;;;;4.18;1.20;;;;;;;5.37;nan;99606.78;4961494;28;20029;-49
2022/04/05 00:44:58;;;;;;;6.85;1.42;;;;;;;5.33;nan;99605.66;4969475;28;20023;-46
2022/04/05 00:47:24;;;;;;;4.55;1.02;;;;;;;5.30;nan;99601.66;4964968;28;20037;-49
2022/04/05 00:49:51;;;;;;;3.67;1.10;;;;;;;5.25;nan;99616.69;4966317;28;20037;-45
2022/04/05 00:52:19;;;;;;;4.93;1.27;;;;;;;5.22;nan;99617.19;4965714;28;20102;-46
2022/04/05 00:54:46;;;;;;;7.10;1.52;;;;;;;5.19;nan;99617.63;4964361;28;20030;-46
2022/04/05 00:57:15;;;;;;;7.78;1.80;;;;;;;5.17;nan;99615.22;4967285;28;20027;-48
2022/04/05 00:59:43;;;;;;;6.55;1.52;;;;;;;5.18;nan;99621.34;4963343;28;20070;-47
2022/04/05 01:02:20;;;;;;;4.65;1.05;;;;;;;5.15;nan;99623.44;4965205;28;20393;-45
2022/04/05 01:04:47;;;;;;;5.10;1.48;;;;;;;5.15;nan;99626.09;4960018;28;20030;-47
2022/04/05 01:07:22;;;;;;;6.10;1.20;;;;;;;5.12;nan;99617.81;4966080;28;20030;-45
2022/04/05 01:09:53;;;;;;;9.68;1.88;;;;;;;5.09;nan;99612.97;4968560;28;20061;-45
2022/04/05 01:12:20;;;;;;;8.48;1.98;;;;;;;5.06;nan;99622.22;4969578;28;20366;-46
2022/04/05 01:14:47;;;;;;;4.88;1.35;;;;;;;5.07;nan;99615.88;4968317;28;20035;-49
2022/04/05 01:17:13;;;;;;;6.60;1.13;;;;;;;5.08;nan;99622.78;4966470;28;20184;-47
2022/04/05 01:19:39;;;;;;;4.40;1.25;;;;;;;5.10;nan;99636.63;4965630;28;20039;-50
2022/04/05 01:22:04;;;;;;;10.43;1.50;;;;;;;5.07;nan;99634.47;4967653;28;20031;-57
2022/04/05 01:24:32;;;;;;;6.32;1.10;;;;;;;5.01;nan;99638.06;4966104;28;20034;-49
2022/04/05 01:27:01;;;;;;;8.68;1.40;;;;;;;4.98;nan;99638.53;4964846;28;20102;-46
2022/04/05 01:29:27;;;;;;;4.05;1.42;;;;;;;4.99;nan;99642.78;4966397;28;20049;-49
2022/04/05 01:31:56;;;;;;;4.22;1.30;;;;;;;4.98;nan;99648.34;4971729;28;20037;-47
2022/04/05 01:34:24;;;;;;;9.63;1.23;;;;;;;4.96;nan;99653.91;4970378;28;20046;-48
2022/04/05 01:36:53;;;;;;;8.23;1.70;;;;;;;4.94;nan;99652.53;4964688;28;20038;-49
2022/04/05 01:39:21;;;;;;;4.07;1.02;;;;;;;4.92;nan;99646.66;4967142;28;20029;-47
2022/04/05 01:41:51;;;;;;;8.00;1.20;;;;;;;4.90;nan;99662.81;4966599;28;20034;-48
2022/04/05 01:44:16;;;;;;;9.02;1.42;;;;;;;4.89;nan;99660.41;4965616;28;20085;-46
2022/04/05 01:46:42;;;;;;;7.97;1.25;;;;;;;4.88;nan;99667.56;4967950;28;20602;-49
2022/04/05 01:49:09;;;;;;;4.60;1.17;;;;;;;4.86;nan;99664.34;4968362;28;20027;-48
2022/04/05 01:51:37;;;;;;;8.65;2.03;;;;;;;4.85;nan;99666.19;4969806;28;20030;-47
2022/04/05 01:54:07;;;;;;;6.60;1.88;;;;;;;4.83;nan;99667.44;4969015;28;20485;-47
2022/04/05 01:56:43;;;;;;;6.90;1.65;;;;;;;4.83;nan;99662.13;4970738;28;20035;-48
2022/04/05 01:59:11;;;;;;;14.95;2.95;;;;;;;4.82;nan;99668.50;4966348;28;20026;-48
2022/04/05 02:01:36;;;;;;;4.30;1.25;;;;;;;4.79;nan;99661.00;4972562;28;20027;-48
2022/04/05 02:04:02;;;;;;;7.45;1.75;;;;;;;4.76;nan;99661.47;4969187;28;20735;-51
2022/04/05 02:06:28;;;;;;;6.00;1.42;;;;;;;4.77;nan;99671.06;4970028;28;20482;-48
2022/04/05 02:08:54;;;;;;;13.18;2.45;;;;;;;4.72;nan;99682.38;4972534;28;20435;-49
2022/04/05 02:11:19;;;;;;;8.35;1.40;;;;;;;4.71;nan;99679.97;4970505;28;20058;-48
2022/04/05 02:13:45;;;;;;;8.00;2.08;;;;;;;4.66;nan;99682.50;4970214;28;20398;-48
2022/04/05 02:16:10;;;;;;;8.65;1.80;;;;;;;4.65;nan;99673.72;4964232;28;20400;-47
2022/04/05 02:18:37;;;;;;;6.88;2.63;;;;;;;4.66;nan;99683.31;4966588;28;20031;-46
2022/04/05 02:21:03;;;;;;;5.00;1.10;;;;;;;4.67;nan;99684.09;4968334;28;20034;-47
2022/04/05 02:23:29;;;;;;;7.28;1.42;;;;;;;4.65;nan;99686.19;4964317;28;20035;-48
2022/04/05 02:25:55;;;;;;;11.80;1.10;;;;;;;4.62;nan;99681.34;4969659;28;20579;-46
2022/04/05 02:28:20;;;;;;;11.32;1.70;;;;;;;4.61;nan;99688.50;4967385;28;20153;-49
2022/04/05 02:30:46;;;;;;;5.35;1.75;;;;;;;4.60;nan;99688.75;4965094;28;20126;-48
2022/04/05 02:33:12;;;;;;;7.85;2.22;;;;;;;4.58;nan;99688.19;4967971;28;21380;-57
2022/04/05 02:35:38;;;;;;;5.63;1.17;;;;;;;4.57;nan;99694.53;4967588;28;20019;-48
2022/04/05 02:38:04;;;;;;;5.47;1.58;;;;;;;4.52;nan;99682.78;4965612;28;20038;-46
2022/04/05 02:40:30;;;;;;;6.15;1.40;;;;;;;4.52;nan;99693.38;4964589;28;20041;-49
2022/04/05 02:42:56;;;;;;;5.22;1.25;;;;;;;4.48;nan;99686.91;4971070;28;20023;-47
2022/04/05 02:45:22;;;;;;;7.68;1.15;;;;;;;4.46;nan;99686.34;4964575;28;20026;-50
2022/04/05 02:47:48;;;;;;;10.82;1.48;;;;;;;4.49;nan;99690.41;4969274;28;20094;-46
2022/04/05 02:50:17;;;;;;;4.50;1.27;;;;;;;4.48;nan;99688.75;4966872;28;20031;-48
2022/04/05 02:52:46;;;;;;;4.80;1.20;;;;;;;4.46;nan;99690.84;4969773;28;20522;-49
2022/04/05 02:55:12;;;;;;;8.55;1.23;;;;;;;4.45;nan;99690.03;4964837;28;20444;-48
2022/04/05 02:57:39;;;;;;;8.00;1.60;;;;;;;4.45;nan;99698.00;4963649;28;20146;-49
2022/04/05 03:00:11;;;;;;;4.95;1.40;;;;;;;4.44;nan;99701.69;4963725;28;20417;-49
2022/04/05 03:02:37;;;;;;;8.25;1.60;;;;;;;4.44;nan;99699.03;4965750;28;20734;-47
2022/04/05 03:05:07;;;;;;;7.90;1.27;;;;;;;4.46;nan;99706.75;4963643;28;20164;-51
2022/04/05 03:07:34;;;;;;;4.53;1.25;;;;;;;4.43;nan;99709.88;4961128;28;20031;-49
2022/04/05 03:10:01;;;;;;;11.98;2.70;;;;;;;4.43;nan;99702.72;4965591;28;20043;-52
2022/04/05 03:12:26;;;;;;;9.55;1.92;;;;;;;4.38;nan;99699.19;4969014;28;20054;-49
2022/04/05 03:14:52;;;;;;;8.88;1.17;;;;;;;4.39;nan;99708.75;4964030;28;20042;-46
2022/04/05 03:17:18;;;;;;;7.47;1.52;;;;;;;4.37;nan;99708.19;4967465;28;20378;-46
2022/04/05 03:19:44;;;;;;;5.47;1.30;;;;;;;4.35;nan;99719.00;4967555;28;20409;-49
2022/04/05 03:22:09;;;;;;;7.68;1.25;;;;;;;4.35;nan;99724.31;4969890;28;20040;-46
2022/04/05 03:24:35;;;;;;;6.25;0.93;;;;;;;4.36;nan;99731.22;4966515;28;20035;-46
2022/04/05 03:27:01;;;;;;;6.28;1.40;;;;;;;4.39;nan;99730.78;4965375;28;20030;-50
2022/04/05 03:29:27;;;;;;;8.30;1.70;;;;;;;4.37;nan;99729.38;4963088;28;20031;-48
2022/04/05 03:31:53;;;;;;;16.90;2.33;;;;;;;4.39;nan;99733.41;4962136;28;20465;-48
2022/04/05 03:34:18;;;;;;;7.15;1.65;;;;;;;4.39;nan;99730.78;4962862;28;20059;-47
2022/04/05 03:36:44;;;;;;;5.90;1.40;;;;;;;4.38;nan;99744.25;4967291;28;20034;-47
2022/04/05 03:39:10;;;;;;;8.77;1.65;;;;;;;4.40;nan;99737.69;4964944;28;20029;-46
2022/04/05 03:41:37;;;;;;;5.97;1.58;;;;;;;4.39;nan;99737.91;4964225;28;20039;-46
2022/04/05 03:44:03;;;;;;;6.97;1.30;;;;;;;4.40;nan;99737.69;4966889;28;20029;-49
2022/04/05 03:46:28;;;;;;;8.32;1.40;;;;;;;4.41;nan;99747.25;4965247;28;20031;-47
2022/04/05 03:48:54;;;;;;;13.60;2.08;;;;;;;4.43;nan;99752.31;4969205;28;20396;-46
2022/04/05 03:51:20;;;;;;;9.05;1.27;;;;;;;4.40;nan;99753.59;4964883;28;20670;-48
2022/04/05 03:53:45;;;;;;;9.05;1.50;;;;;;;4.39;nan;99751.19;4968058;28;20030;-47
2022/04/05 03:56:11;;;;;;;10.57;1.60;;;;;;;4.38;nan;99749.56;4967571;28;20609;-48
2022/04/05 03:58:36;;;;;;;12.52;2.22;;;;;;;4.37;nan;99759.38;4968856;28;20035;-49
2022/04/05 04:01:02;;;;;;;7.50;2.03;;;;;;;4.37;nan;99751.41;4969663;28;20019;-46
2022/04/05 04:03:28;;;;;;;6.45;1.50;;;;;;;4.38;nan;99755.69;4971511;28;20031;-49
2022/04/05 04:05:53;;;;;;;8.63;1.70;;;;;;;4.34;nan;99753.72;4964082;28;20031;-47
2022/04/05 04:08:19;;;;;;;10.60;2.03;;;;;;;4.37;nan;99758.56;4966592;28;20019;-47
2022/04/05 04:10:48;;;;;;;6.85;1.40;;;;;;;4.37;nan;99748.75;4966286;28;20504;-47
2022/04/05 04:13:14;;;;;;;5.95;1.52;;;;;;;4.37;nan;99754.06;4966126;28;20038;-46
2022/04/05 04:15:40;;;;;;;10.18;1.77;;;;;;;4.37;nan;99763.88;4968667;28;20043;-52
2022/04/05 04:18:05;;;;;;;8.30;1.27;;;;;;;4.37;nan;99763.88;4967652;28;20037;-48
2022/04/05 04:20:31;;;;;;;11.02;1.88;;;;;;;4.36;nan;99768.38;4966456;28;20050;-47
2022/04/05 04:22:56;;;;;;;7.22;1.25;;;;;;;4.39;nan;99775.84;4966048;28;20027;-46
2022/04/05 04:25:22;;;;;;;9.88;2.03;;;;;;;4.38;nan;99771.59;4963980;28;20061;-49
2022/04/05 04:27:47;;;;;;;4.50;1.10;;;;;;;4.38;nan;99773.44;4969488;28;20041;-46
2022/04/05 04:30:13;;;;;;;4.88;1.30;;;;;;;4.38;nan;99778.75;4965598;28;20500;-50
2022/04/05 04:32:39;;;;;;;6.78;1.83;;;;;;;4.37;nan;99787.72;4970598;28;20078;-47
2022/04/05 04:35:05;;;;;;;10.10;1.67;;;;;;;4.37;nan;99785.88;4969208;28;20498;-48
2022/04/05 04:37:31;;;;;;;10.98;2.33;;;;;;;4.38;nan;99792.81;4967209;28;20034;-50
2022/04/05 04:39:57;;;;;;;7.10;1.48;;;;;;;4.39;nan;99793.63;4970685;28;20134;-47
2022/04/05 04:42:22;;;;;;;6.20;1.60;;;;;;;4.39;nan;99798.91;4961412;28;20022;-49
2022/04/05 04:44:48;;;;;;;9.30;1.50;;;;;;;4.37;nan;99796.50;4970067;28;20034;-49
2022/04/05 04:47:13;;;;;;;5.03;1.20;;;;;;;4.41;nan;99796.84;4974312;28;20022;-46
2022/04/05 04:49:39;;;;;;;6.05;1.52;;;;;;;4.43;nan;99800.88;4970901;28;20043;-47
2022/04/05 04:52:05;;;;;;;6.78;1.50;;;;;;;4.46;nan;99805.72;4971262;28;20101;-50
2022/04/05 04:54:30;;;;;;;6.80;1.40;;;;;;;4.45;nan;99795.34;4971287;28;20194;-47
2022/04/05 04:56:56;;;;;;;8.77;1.50;;;;;;;4.44;nan;99813.09;4971527;28;20022;-50
2022/04/05 04:59:21;;;;;;;9.02;1.48;;;;;;;4.43;nan;99808.81;4949435;28;20080;-48
2022/04/05 05:01:47;;;;;;;8.70;2.38;;;;;;;4.44;nan;99814.94;4970210;28;20031;-46
2022/04/05 05:04:12;;;;;;;11.48;2.00;;;;;;;4.43;nan;99819.44;4969020;28;20122;-50
2022/04/05 05:06:38;;;;;;;10.95;1.48;;;;;;;4.42;nan;99831.09;4966306;28;20039;-51
2022/04/05 05:09:04;;;;;;;5.55;1.23;;;;;;;4.42;nan;99831.09;4970670;28;20046;-51
2022/04/05 05:11:29;;;;;;;8.30;1.30;;;;;;;4.46;nan;99832.22;4969575;28;20124;-47
2022/04/05 05:13:54;;;;;;;9.15;1.40;;;;;;;4.48;nan;99835.47;4968877;28;20026;-49
2022/04/05 05:16:20;;;;;;;4.57;1.00;;;;;;;4.50;nan;99838.72;4968879;28;20026;-49
2022/04/05 05:18:46;;;;;;;14.38;2.15;;;;;;;4.49;nan;99850.38;4971344;28;20356;-47
2022/04/05 05:21:11;;;;;;;4.82;1.67;;;;;;;4.49;nan;99852.22;4972901;28;20037;-47
2022/04/05 05:23:37;;;;;;;5.53;1.40;;;;;;;4.48;nan;99863.81;4966517;28;20089;-50
2022/04/05 05:26:03;;;;;;;12.10;1.92;;;;;;;4.50;nan;99857.28;4972114;28;20034;-47
2022/04/05 05:28:28;;;;;;;7.72;1.80;;;;;;;4.50;nan;99865.25;4973099;28;20030;-46
2022/04/05 05:30:54;;;;;;;12.60;1.85;;;;;;;4.50;nan;99867.09;4971576;28;20045;-49
2022/04/05 05:33:20;;;;;;;13.95;1.73;;;;;;;4.55;nan;99862.69;4972689;28;20158;-50
2022/04/05 05:35:45;;;;;;;7.38;1.50;;;;;;;4.60;nan;99871.81;4972080;28;20031;-46
2022/04/05 05:38:11;;;;;;;11.57;1.92;;;;;;;4.60;nan;99869.16;4964866;28;20031;-46
2022/04/05 05:40:36;;;;;;;10.60;1.98;;;;;;;4.61;nan;99876.06;4971209;28;20114;-45
2022/04/05 05:43:04;;;;;;;11.50;2.67;;;;;;;4.64;nan;99873.75;4969008;28;20038;-46
2022/04/05 05:45:35;;;;;;;7.15;1.20;;;;;;;4.64;nan;99876.41;4971073;28;20174;-46
2022/04/05 05:48:01;;;;;;;9.00;1.40;;;;;;;4.69;nan;99881.88;4974354;28;20061;-47
2022/04/05 05:50:27;;;;;;;7.53;1.70;;;;;;;4.71;nan;99884.28;4974690;28;20136;-45
2022/04/05 05:52:53;;;;;;;4.90;1.30;;;;;;;4.75;nan;99894.19;4974861;28;20026;-46
2022/04/05 05:55:21;;;;;;;6.72;1.35;;;;;;;4.78;nan;99898.22;4967494;28;20366;-47
2022/04/05 05:57:48;;;;;;;10.88;1.95;;;;;;;4.77;nan;99891.31;4967718;28;20034;-45
2022/04/05 06:00:17;;;;;;;13.75;1.63;;;;;;;4.81;nan;99906.53;4970751;28;20101;-45
2022/04/05 06:02:44;;;;;;;4.47;1.20;;;;;;;4.85;nan;99905.06;4967457;28;20023;-46
2022/04/05 06:05:10;;;;;;;7.20;1.30;;;;;;;4.84;nan;99911.38;4967459;28;20127;-46
2022/04/05 06:07:37;;;;;;;7.90;1.77;;;;;;;4.89;nan;99921.31;4973070;28;20027;-49
2022/04/05 06:10:04;;;;;;;9.15;1.73;;;;;;;4.92;nan;99917.41;4967878;28;20030;-46
2022/04/05 06:12:30;;;;;;;3.20;1.20;;;;;;;4.95;nan;99911.63;4971652;28;20062;-48
2022/04/05 06:14:55;;;;;;;9.40;1.33;;;;;;;4.93;nan;99909.19;4971203;28;20030;-46
2022/04/05 06:17:21;;;;;;;7.22;1.58;;;;;;;4.92;nan;99920.84;4969895;28;20313;-45
2022/04/05 06:19:47;;;;;;;6.00;1.30;;;;;;;4.98;nan;99927.88;4971692;28;20266;-46
2022/04/05 06:22:13;;;;;;;4.93;1.15;;;;;;;4.99;nan;99924.19;4969103;28;20114;-46
2022/04/05 06:24:39;;;;;;;9.45;1.77;;;;;;;5.03;nan;99921.91;4967879;28;20031;-46
2022/04/05 06:27:05;;;;;;;5.22;1.42;;;;;;;5.02;nan;99926.38;4965004;28;20503;-46
2022/04/05 06:29:31;;;;;;;5.28;1.52;;;;;;;5.07;nan;99936.31;4972804;28;20511;-46
2022/04/05 06:31:57;;;;;;;9.02;1.50;;;;;;;5.12;nan;99936.44;4970412;28;20181;-48
2022/04/05 06:34:24;;;;;;;9.23;1.38;;;;;;;5.18;nan;99943.47;4969600;28;20436;-46
2022/04/05 06:36:49;;;;;;;5.03;1.00;;;;;;;5.24;nan;99947.88;4972450;28;20023;-46
2022/04/05 06:39:15;;;;;;;5.07;1.00;;;;;;;5.28;nan;99956.16;4973909;28;20102;-45
2022/04/05 06:41:41;;;;;;;5.80;1.80;;;;;;;5.35;nan;99954.19;4972677;28;20034;-46
2022/04/05 06:44:07;;;;;;;8.15;1.45;;;;;;;5.44;nan;99966.09;4965655;28;20628;-45
2022/04/05 06:46:33;;;;;;;6.38;1.20;;;;;;;5.49;nan;99957.41;4966517;28;20113;-45
2022/04/05 06:48:58;;;;;;;8.38;1.85;;;;;;;5.53;nan;99970.00;4970820;28;20030;-48
2022/04/05 06:51:25;;;;;;;9.77;1.05;;;;;;;5.54;nan;99962.81;4969996;28;20038;-46
2022/04/05 06:53:51;;;;;;;6.80;1.42;;;;;;;5.59;nan;99968.25;4968149;28;20400;-46
2022/04/05 06:56:19;;;;;;;7.20;1.30;;;;;;;5.65;nan;99964.66;4972327;28;20029;-48
2022/04/05 06:58:44;;;;;;;5.38;1.48;;;;;;;5.67;nan;99981.19;4964875;28;20035;-46
2022/04/05 07:01:10;;;;;;;3.53;1.08;;;;;;;5.68;nan;99978.28;4971620;28;20469;-46
2022/04/05 07:03:35;;;;;;;4.50;1.13;;;;;;;5.71;nan;99975.16;4972203;28;20037;-46
2022/04/05 07:06:00;;;;;;;4.82;1.20;;;;;;;5.79;nan;99989.94;4967672;28;20034;-45
2022/04/05 07:08:26;;;;;;;10.65;1.35;;;;;;;5.80;nan;99990.75;4973925;28;20034;-47
2022/04/05 07:10:51;;;;;;;7.25;1.25;;;;;;;5.87;nan;99994.06;4968510;28;20393;-46
2022/04/05 07:13:17;;;;;;;10.20;1.90;;;;;;;5.95;nan;99996.41;4966677;28;20492;-49
2022/04/05 07:15:43;;;;;;;3.47;0.98;;;;;;;6.00;nan;100002.63;4966466;28;20035;-46
2022/04/05 07:18:08;;;;;;;2.92;1.15;;;;;;;6.02;nan;99995.22;4972136;28;20022;-46
2022/04/05 07:20:34;;;;;;;6.78;2.13;;;;;;;6.09;nan;100004.91;4970276;28;20105;-47
2022/04/05 07:22:59;;;;;;;8.65;1.95;;;;;;;6.11;nan;100008.97;4969075;28;20033;-46
2022/04/05 07:25:26;;;;;;;6.07;1.20;;;;;;;6.15;nan;100012.75;4972692;28;20061;-46
2022/04/05 07:27:52;;;;;;;7.47;1.20;;;;;;;6.23;nan;100015.03;4973739;28;20041;-46
2022/04/05 07:30:19;;;;;;;5.35;1.20;;;;;;;6.25;nan;100006.81;4971551;28;20541;-46
2022/04/05 07:32:46;;;;;;;8.27;1.52;;;;;;;6.29;nan;100018.63;4965216;28;20035;-46
2022/04/05 07:35:13;;;;;;;4.10;1.17;;;;;;;6.30;nan;100022.88;4966704;28;20027;-46
2022/04/05 07:37:39;;;;;;;10.25;1.30;;;;;;;6.30;nan;100030.88;4968956;28;20034;-46
2022/04/05 07:40:08;;;;;;;7.90;1.42;;;;;;;6.31;nan;100029.81;4965603;28;20378;-46
2022/04/05 07:42:34;;;;;;;4.60;1.00;;;;;;;6.32;nan;100040.22;4970273;28;20023;-45
2022/04/05 07:44:59;;;;;;;7.80;1.35;;;;;;;6.38;nan;100041.13;4968124;28;20028;-45
2022/04/05 07:47:25;;;;;;;5.32;1.20;;;;;;;6.40;nan;100051.53;4963937;28;20113;-45
2022/04/05 07:49:50;;;;;;;11.82;2.45;;;;;;;6.36;nan;100044.03;4973423;28;20461;-45
2022/04/05 07:52:16;;;;;;;5.88;1.33;;;;;;;6.40;nan;100047.00;4969287;28;20023;-45
2022/04/05 07:54:42;;;;;;;9.30;2.33;;;;;;;6.46;nan;100051.38;4968352;28;20026;-46
2022/04/05 07:57:10;;;;;;;7.05;1.13;;;;;;;6.53;nan;100056.56;4970237;28;20473;-46
2022/04/05 07:59:36;;;;;;;6.53;1.20;;;;;;;6.62;nan;100052.47;4968676;28;20122;-46
2022/04/05 08:02:02;;;;;;;2.97;1.10;;;;;;;6.57;nan;100053.19;4964252;28;20033;-46
2022/04/05 08:04:28;;;;;;;5.90;1.20;;;;;;;6.57;nan;100049.72;4970648;28;20109;-46
2022/04/05 08:06:53;;;;;;;7.38;2.40;;;;;;;6.56;nan;100058.75;4968965;28;20154;-46
2022/04/05 08:09:19;;;;;;;7.65;1.58;;;;;;;6.55;nan;100068.59;4969491;28;20030;-45
2022/04/05 08:11:44;;;;;;;9.35;1.50;;;;;;;6.55;nan;100067.78;4971170;28;20030;-45
2022/04/05 08:14:10;;;;;;;5.40;1.30;;;;;;;6.63;nan;100075.38;4973281;28;20042;-46
2022/04/05 08:16:35;;;;;;;10.05;1.60;;;;;;;6.74;nan;100073.72;4972515;28;20031;-46
2022/04/05 08:19:01;;;;;;;8.70;1.75;;;;;;;6.81;nan;100069.03;4972551;28;20121;-46
2022/04/05 08:21:27;;;;;;;8.52;2.00;;;;;;;6.85;nan;100073.66;4967842;28;20026;-45
2022/04/05 08:23:52;;;;;;;6.97;1.65;;;;;;;6.88;nan;100083.84;4971741;28;20081;-46
2022/04/05 08:26:18;;;;;;;5.25;1.30;;;;;;;6.89;nan;100090.78;4969644;28;20057;-45
2022/04/05 08:28:44;;;;;;;7.00;1.55;;;;;;;6.89;nan;100080.13;4969951;28;20049;-45
2022/04/05 08:31:10;;;;;;;4.85;1.20;;;;;;;6.95;nan;100089.00;4974432;28;20440;-46
2022/04/05 08:33:35;;;;;;;3.00;0.93;;;;;;;7.07;nan;100087.09;4972993;28;20030;-47
2022/04/05 08:36:01;;;;;;;6.30;1.40;;;;;;;7.20;nan;100101.97;4968115;28;20061;-45
2022/04/05 08:38:28;;;;;;;5.55;1.17;;;;;;;7.22;nan;100107.84;4975245;28;20088;-47
2022/04/05 08:40:55;;;;;;;7.50;1.25;;;;;;;7.19;nan;100103.81;4969592;28;20031;-46
2022/04/05 08:43:21;;;;;;;3.90;1.52;;;;;;;7.19;nan;100111.00;4976440;28;20056;-45
2022/04/05 08:45:57;;;;;;;7.30;1.52;;;;;;;7.21;nan;100114.22;4970185;28;20211;-46
2022/04/05 08:48:26;;;;;;;5.90;1.73;;;;;;;7.27;nan;100118.59;4970992;28;20037;-45
2022/04/05 08:50:53;;;;;;;4.40;2.03;;;;;;;7.30;nan;100118.09;4969395;28;20548;-45
2022/04/05 08:53:19;;;;;;;4.63;1.23;;;;;;;7.34;nan;100123.75;4973839;28;20032;-44
2022/04/05 08:55:45;;;;;;;4.85;1.40;;;;;;;7.43;nan;100125.78;4972255;28;20042;-45
2022/04/05 08:58:12;;;;;;;5.38;1.40;;;;;;;7.49;nan;100130.13;4972330;28;20023;-45
2022/04/05 09:00:38;;;;;;;7.65;1.02;;;;;;;7.54;nan;100127.56;4973873;28;20035;-46
2022/04/05 09:03:07;;;;;;;10.82;1.70;;;;;;;7.65;nan;100133.03;4975597;28;20041;-46
2022/04/05 09:05:37;;;;;;;6.80;1.65;;;;;;;7.70;nan;100133.09;4975571;28;20046;-46
2022/04/05 09:08:26;;;;;;;5.72;1.30;;;;;;;7.66;nan;100138.13;4967266;28;20030;-45
2022/04/05 09:11:20;;;;;;;6.72;1.40;;;;;;;7.66;nan;100140.00;4967796;28;20039;-46
2022/04/05 09:14:00;;;;;;;5.80;1.45;;;;;;;7.77;nan;100144.44;4969193;28;20204;-45
2022/04/05 09:16:31;;;;;;;5.22;1.40;;;;;;;7.89;nan;100143.25;4968217;28;20520;-45
2022/04/05 09:18:59;;;;;;;4.35;1.30;;;;;;;7.88;nan;100149.66;4970495;28;20485;-46
2022/04/05 09:21:25;;;;;;;4.03;0.93;;;;;;;7.85;nan;100141.34;4973003;28;20425;-47
2022/04/05 09:23:53;;;;;;;3.80;1.10;;;;;;;7.87;nan;100145.38;4966554;28;20022;-46
2022/04/05 09:26:19;;;;;;;6.13;1.02;;;;;;;7.97;nan;100144.72;4972206;28;20027;-45
2022/04/05 09:28:49;;;;;;;3.25;1.20;;;;;;;7.97;nan;100139.38;4971614;28;20488;-46
2022/04/05 09:31:18;;;;;;;7.43;1.77;;;;;;;8.12;nan;100158.28;4968086;28;20034;-45
2022/04/05 09:34:03;;;;;;;3.65;1.25;;;;;;;8.21;nan;100155.19;4968737;28;20051;-46
2022/04/05 09:36:34;;;;;;;9.07;1.75;;;;;;;8.34;nan;100154.84;4970551;28;20503;-46
2022/04/05 09:39:23;;;;;;;3.95;1.15;;;;;;;8.30;nan;100159.06;4970262;28;20433;-46
2022/04/05 09:42:03;;;;;;;4.70;1.30;;;;;;;8.26;nan;100155.25;4970316;28;20131;-46
2022/04/05 09:44:33;;;;;;;7.15;2.13;;;;;;;8.27;nan;100154.22;4977124;28;20547;-46
2022/04/05 09:47:10;;;;;;;6.65;1.83;;;;;;;8.27;nan;100156.88;4973657;28;20034;-45
2022/04/05 09:49:41;;;;;;;5.43;1.73;;;;;;;8.41;nan;100160.81;4970773;28;20387;-45
2022/04/05 09:52:29;;;;;;;3.70;1.48;;;;;;;8.47;nan;100163.31;4967240;28;20034;-47
2022/04/05 09:54:56;;;;;;;6.70;1.10;;;;;;;8.67;nan;100165.41;4970337;28;20444;-45
2022/04/05 09:57:32;;;;;;;4.25;1.17;;;;;;;8.66;nan;100169.16;4970707;28;20510;-46
2022/04/05 10:00:09;;;;;;;4.63;1.45;;;;;;;8.69;nan;100173.97;4968397;28;20473;-46
2022/04/05 10:02:34;;;;;;;7.78;1.67;;;;;;;8.77;nan;100188.75;4970843;28;20034;-46
2022/04/05 10:05:04;;;;;;;2.20;1.00;;;;;;;8.82;nan;100177.34;4972561;28;20027;-45
2022/04/05 10:07:31;;;;;;;4.90;1.02;;;;;;;8.82;nan;100188.84;4962675;28;20529;-46
2022/04/05 10:10:03;;;;;;;6.93;2.50;;;;;;;8.89;nan;100178.75;4973221;28;20034;-45
2022/04/05 10:12:29;;;;;;;1.80;0.80;;;;;;;9.01;nan;100186.63;4972767;28;20073;-45
2022/04/05 10:14:56;;;;;;;3.53;1.30;;;;;;;9.14;nan;100185.41;4969613;28;20037;-46
2022/04/05 10:17:25;;;;;;;5.68;1.52;;;;;;;9.15;nan;100187.81;4972615;28;20027;-47
2022/04/05 10:19:53;;;;;;;4.60;1.20;;;;;;;9.20;nan;100193.25;4969849;28;20514;-46
2022/04/05 10:22:22;;;;;;;3.80;1.08;;;;;;;9.23;nan;100183.91;4964062;28;20055;-46
2022/04/05 10:24:51;;;;;;;3.22;1.10;;;;;;;9.27;nan;100183.16;4972184;28;20044;-46
2022/04/05 10:27:18;;;;;;;4.38;1.25;;;;;;;9.26;nan;100178.84;4970947;28;20023;-47
2022/04/05 10:29:45;;;;;;;2.97;1.00;;;;;;;9.32;nan;100179.69;4969508;28;20027;-46
2022/04/05 10:32:38;;;;;;;2.55;1.33;;;;;;;9.41;nan;100175.53;4970860;28;20144;-46
2022/04/05 10:35:06;;;;;;;4.03;1.10;;;;;;;9.64;nan;100191.22;4972698;28;20070;-46
2022/04/05 10:37:37;;;;;;;4.28;1.10;;;;;;;9.64;nan;100185.06;4973906;28;20038;-45
2022/04/05 10:40:02;;;;;;;5.13;1.17;;;;;;;9.77;nan;100190.00;4969690;28;20273;-46
2022/04/05 10:42:35;;;;;;;5.00;1.00;;;;;;;9.93;nan;100183.69;4965525;28;20036;-45
2022/04/05 10:45:25;;;;;;;5.35;1.27;;;;;;;10.00;nan;100196.84;4968304;28;20030;-46
2022/04/05 10:48:16;;;;;;;5.50;0.93;;;;;;;10.09;nan;100183.81;4967220;28;20073;-47
2022/04/05 10:51:07;;;;;;;2.50;0.80;;;;;;;9.99;nan;100190.69;4966772;28;20035;-47
2022/04/05 10:54:17;;;;;;;2.05;1.02;;;;;;;9.96;nan;100191.22;4971556;28;20401;-47
2022/04/05 10:56:30;;;;;;;4.00;1.02;;;;;;;9.86;nan;100187.63;4964832;28;20042;-46
2022/04/05 10:59:06;;;;;;;1.92;0.70;;;;;;;9.91;nan;100183.16;4972478;28;20023;-46
2022/04/05 11:01:44;;;;;;;4.35;0.90;;;;;;;10.02;nan;100175.97;4969732;28;20026;-46
2022/04/05 11:04:14;;;;;;;2.90;0.88;;;;;;;10.13;nan;100179.53;4966818;28;20240;-47
2022/04/05 11:06:58;;;;;;;4.20;1.00;;;;;;;10.13;nan;100176.84;4970989;28;20133;-46
2022/04/05 11:09:39;;;;;;;4.47;0.70;;;;;;;10.25;nan;100169.47;4966478;28;20061;-46
2022/04/05 11:12:10;;;;;;;3.03;1.27;;;;;;;10.48;nan;100177.09;4961326;28;20645;-46
2022/04/05 11:14:39;;;;;;;3.25;0.82;;;;;;;10.48;nan;100184.31;4969550;28;20026;-46
2022/04/05 11:17:07;;;;;;;2.78;0.57;;;;;;;10.35;nan;100185.56;4967091;28;20404;-46
2022/04/05 11:19:41;;;;;;;2.00;0.75;;;;;;;10.30;nan;100188.25;4967313;28;20750;-45
2022/04/05 11:22:31;;;;;;;3.50;0.50;;;;;;;10.39;nan;100192.03;4969224;28;20030;-46
2022/04/05 11:25:07;;;;;;;4.22;0.82;;;;;;;10.50;nan;100187.53;4963308;28;20404;-47
2022/04/05 11:27:45;;;;;;;6.07;1.10;;;;;;;10.35;nan;100190.13;4969990;28;20038;-46
2022/04/05 11:30:25;;;;;;;1.38;0.50;;;;;;;10.15;nan;100185.44;4963377;28;20034;-46
2022/04/05 11:33:09;;;;;;;3.50;0.88;;;;;;;9.99;nan;100196.03;4970743;28;20058;-46
2022/04/05 11:36:06;;;;;;;2.28;0.73;;;;;;;9.96;nan;100196.56;4963489;28;20143;-48
2022/04/05 11:38:38;;;;;;;4.07;0.70;;;;;;;10.10;nan;100188.91;4930392;28;20121;-46
2022/04/05 11:41:10;;;;;;;2.70;0.80;;;;;;;10.27;nan;100186.09;4963363;28;20088;-46
2022/04/05 11:43:39;;;;;;;4.57;0.80;;;;;;;10.39;nan;100183.97;4967028;28;20040;-47
2022/04/05 11:46:27;;;;;;;3.28;0.60;;;;;;;10.46;nan;100178.41;4962175;28;20041;-49
2022/04/05 11:48:58;;;;;;;2.20;0.47;;;;;;;10.64;nan;100180.63;4962758;28;20600;-48
2022/04/05 11:51:35;;;;;;;1.52;0.47;;;;;;;10.64;nan;100182.50;4966109;28;20413;-48
2022/04/05 11:54:08;;;;;;;2.90;0.50;;;;;;;10.59;nan;100191.31;4964541;28;20033;-46
2022/04/05 11:56:34;;;;;;;3.33;1.38;;;;;;;10.56;nan;100181.91;4964220;28;20071;-48
2022/04/05 11:59:01;;;;;;;4.82;1.00;;;;;;;10.63;nan;100181.69;4967688;28;20462;-47